createdAt,value
2019-02-16T00:00:34.311Z,11.63
2019-02-16T00:03:03.712Z,10.37
2019-02-16T00:05:33.395Z,11.13
2019-02-16T00:08:03.214Z,10.57
2019-02-16T00:10:32.548Z,11.07
2019-02-16T00:13:01.908Z,10.93
2019-02-16T00:15:31.304Z,12.77
2019-02-16T00:18:01.236Z,11.10
2019-02-16T00:20:30.580Z,11.97
2019-02-16T00:22:59.934Z,11.87
2019-02-16T00:25:30.015Z,11.97
2019-02-16T00:27:59.328Z,11.90
2019-02-16T00:30:28.680Z,11.10
2019-02-16T00:32:58.039Z,11.50
2019-02-16T00:35:27.379Z,11.23
2019-02-16T00:37:56.734Z,10.90
2019-02-16T00:40:26.896Z,10.50
2019-02-16T00:42:56.712Z,11.40
2019-02-16T00:45:26.038Z,10.80
2019-02-16T00:47:55.408Z,11.63
2019-02-16T00:50:24.783Z,13.77
2019-02-16T00:52:55.564Z,13.63
2019-02-16T00:55:26.963Z,15.80
2019-02-16T00:57:57.003Z,12.67
2019-02-16T01:00:26.415Z,15.80
2019-02-16T01:02:56.304Z,12.10
2019-02-16T01:05:25.703Z,11.87
2019-02-16T01:07:54.998Z,11.60
2019-02-16T01:10:24.362Z,11.93
2019-02-16T01:12:53.772Z,10.37
2019-02-16T01:15:23.272Z,9.40
2019-02-16T01:17:53.547Z,9.63
2019-02-16T01:20:22.839Z,8.97
2019-02-16T01:22:52.228Z,8.03
2019-02-16T01:25:21.567Z,8.60
2019-02-16T01:27:50.881Z,7.70
2019-02-16T01:30:20.200Z,8.63
2019-02-16T01:32:49.552Z,8.10
2019-02-16T01:35:18.830Z,8.63
2019-02-16T01:37:48.128Z,8.00
2019-02-16T01:40:17.485Z,8.30
2019-02-16T01:42:47.076Z,7.90
2019-02-16T01:45:16.199Z,9.20
2019-02-16T01:47:46.521Z,8.37
2019-02-16T01:50:16.804Z,8.20
2019-02-16T01:52:46.227Z,9.10
2019-02-16T01:55:15.549Z,8.83
2019-02-16T01:57:45.535Z,8.17
2019-02-16T02:00:15.552Z,8.03
2019-02-16T02:02:44.905Z,7.90
2019-02-16T02:05:14.342Z,8.13
2019-02-16T02:07:43.766Z,9.03
2019-02-16T02:10:13.063Z,8.60
2019-02-16T02:12:42.525Z,8.10
2019-02-16T02:15:12.007Z,8.47
2019-02-16T02:17:41.752Z,8.53
2019-02-16T02:20:11.207Z,8.43
2019-02-16T02:22:40.547Z,7.87
2019-02-16T02:25:11.803Z,8.33
2019-02-16T02:27:41.220Z,8.30
2019-02-16T02:30:11.114Z,8.47
2019-02-16T02:32:40.502Z,8.77
2019-02-16T02:35:10.505Z,8.43
2019-02-16T02:37:39.981Z,8.17
2019-02-16T02:40:09.379Z,10.37
2019-02-16T02:42:39.064Z,7.70
2019-02-16T02:45:10.047Z,8.63
2019-02-16T02:47:39.401Z,7.93
2019-02-16T02:50:09.448Z,8.27
2019-02-16T02:52:38.831Z,8.17
2019-02-16T02:55:08.253Z,7.90
2019-02-16T02:57:38.271Z,7.47
2019-02-16T03:00:08.167Z,9.30
2019-02-16T03:02:37.599Z,8.00
2019-02-16T03:05:09.164Z,8.17
2019-02-16T03:07:39.434Z,8.23
2019-02-16T03:10:08.880Z,7.53
2019-02-16T03:12:38.374Z,7.50
2019-02-16T03:15:09.791Z,7.70
2019-02-16T03:17:39.099Z,7.73
2019-02-16T03:20:08.452Z,9.47
2019-02-16T03:23:43.082Z,7.47
2019-02-16T03:26:27.874Z,7.57
2019-02-16T03:29:08.249Z,7.87
2019-02-16T03:33:53.809Z,8.03
2019-02-16T03:36:47.652Z,7.60
2019-02-16T03:39:22.279Z,7.40
2019-02-16T03:41:52.249Z,6.80
2019-02-16T03:44:21.860Z,7.37
2019-02-16T03:46:52.213Z,6.40
2019-02-16T03:49:21.581Z,7.03
2019-02-16T03:51:51.463Z,7.13
2019-02-16T03:54:21.996Z,6.87
2019-02-16T03:56:52.048Z,7.33
2019-02-16T03:59:21.532Z,7.73
2019-02-16T04:05:01.381Z,6.93
2019-02-16T04:07:30.691Z,7.03
2019-02-16T04:10:00.424Z,7.90
2019-02-16T04:12:29.560Z,6.93
2019-02-16T04:14:58.906Z,6.90
2019-02-16T04:17:28.229Z,6.20
2019-02-16T04:19:58.240Z,6.40
2019-02-16T04:22:27.532Z,7.30
2019-02-16T04:24:56.883Z,6.37
2019-02-16T04:27:26.309Z,7.00
2019-02-16T04:29:55.641Z,7.13
2019-02-16T04:32:25.029Z,6.73
2019-02-16T04:34:54.295Z,7.53
2019-02-16T04:37:24.592Z,7.40
2019-02-16T04:39:53.963Z,7.20
2019-02-16T04:42:23.641Z,7.70
2019-02-16T04:44:53.034Z,8.30
2019-02-16T04:47:22.326Z,9.13
2019-02-16T04:49:52.079Z,8.53
2019-02-16T04:52:21.371Z,7.97
2019-02-16T04:54:50.743Z,7.60
2019-02-16T04:57:20.029Z,7.97
2019-02-16T04:59:49.975Z,7.43
2019-02-16T05:02:19.301Z,8.60
2019-02-16T05:04:48.579Z,7.13
2019-02-16T05:07:17.936Z,7.10
2019-02-16T05:09:47.361Z,6.40
2019-02-16T05:12:16.643Z,6.87
2019-02-16T05:14:45.985Z,7.07
2019-02-16T05:17:15.357Z,7.17
2019-02-16T05:19:44.691Z,7.07
2019-02-16T05:22:14.018Z,6.83
2019-02-16T05:24:43.359Z,7.50
2019-02-16T05:27:12.713Z,7.10
2019-02-16T05:29:42.053Z,7.30
2019-02-16T05:32:11.358Z,7.13
2019-02-16T05:34:40.649Z,7.20
2019-02-16T05:37:10.050Z,7.03
2019-02-16T05:39:40.206Z,6.67
2019-02-16T05:42:09.476Z,7.77
2019-02-16T05:44:45.581Z,7.37
2019-02-16T05:47:14.911Z,7.00
2019-02-16T05:49:44.260Z,7.27
2019-02-16T05:52:13.662Z,6.37
2019-02-16T05:54:42.992Z,8.03
2019-02-16T05:57:12.330Z,7.87
2019-02-16T05:59:42.273Z,8.00
2019-02-16T06:02:11.683Z,7.47
2019-02-16T06:04:41.026Z,8.10
2019-02-16T06:07:10.327Z,8.27
2019-02-16T06:09:39.698Z,9.83
2019-02-16T06:12:09.067Z,7.87
2019-02-16T06:14:38.397Z,7.60
2019-02-16T06:17:07.732Z,7.93
2019-02-16T06:19:37.116Z,7.73
2019-02-16T06:22:06.612Z,8.00
2019-02-16T06:24:35.940Z,9.10
2019-02-16T06:27:05.249Z,8.07
2019-02-16T06:29:34.613Z,8.90
2019-02-16T06:32:04.043Z,7.83
2019-02-16T06:34:33.362Z,7.60
2019-02-16T06:37:07.392Z,7.47
2019-02-16T06:39:36.827Z,8.07
2019-02-16T06:42:06.166Z,7.60
2019-02-16T06:44:35.580Z,7.53
2019-02-16T06:47:04.896Z,8.63
2019-02-16T06:49:34.229Z,7.97
2019-02-16T06:52:03.592Z,9.43
2019-02-16T06:54:32.997Z,7.83
2019-02-16T06:57:06.224Z,8.57
2019-02-16T06:59:35.795Z,7.13
2019-02-16T07:02:05.114Z,10.17
2019-02-16T07:04:35.728Z,10.87
2019-02-16T07:07:05.049Z,7.80
2019-02-16T07:09:34.403Z,10.17
2019-02-16T07:12:03.731Z,9.07
2019-02-16T07:14:33.092Z,20.07
2019-02-16T07:18:09.893Z,14.43
2019-02-16T07:20:39.212Z,25.00
2019-02-16T07:23:08.567Z,17.87
2019-02-16T07:25:37.896Z,10.57
2019-02-16T07:28:07.239Z,12.53
2019-02-16T07:30:36.573Z,12.70
2019-02-16T07:33:05.893Z,11.10
2019-02-16T07:35:35.218Z,10.90
2019-02-16T07:38:04.740Z,9.87
2019-02-16T07:40:34.085Z,9.63
2019-02-16T07:43:03.458Z,8.33
2019-02-16T07:46:03.264Z,9.47
2019-02-16T07:48:42.019Z,9.10
2019-02-16T07:51:15.430Z,10.07
2019-02-16T07:54:49.443Z,10.80
2019-02-16T07:57:23.725Z,11.93
2019-02-16T08:00:28.302Z,12.50
2019-02-16T08:03:02.562Z,12.00
2019-02-16T08:06:08.275Z,13.33
2019-02-16T08:08:44.669Z,13.10
2019-02-16T08:11:20.145Z,14.17
2019-02-16T08:13:58.073Z,13.17
2019-02-16T08:16:30.613Z,13.50
2019-02-16T08:19:04.020Z,16.77
2019-02-16T08:21:39.719Z,15.13
2019-02-16T08:24:14.148Z,14.07
2019-02-16T08:26:47.566Z,15.93
2019-02-16T08:29:21.868Z,14.70
2019-02-16T08:32:58.686Z,14.37
2019-02-16T08:35:32.916Z,14.03
2019-02-16T08:38:08.276Z,14.97
2019-02-16T08:40:43.605Z,19.83
2019-02-16T08:43:18.990Z,16.27
2019-02-16T08:46:52.720Z,15.23
2019-02-16T08:49:26.949Z,15.27
2019-02-16T08:52:03.169Z,14.40
2019-02-16T08:54:41.539Z,14.67
2019-02-16T08:57:17.970Z,16.03
2019-02-16T08:59:53.549Z,15.83
2019-02-16T09:02:44.331Z,14.97
2019-02-16T09:05:17.725Z,18.43
2019-02-16T09:08:11.207Z,16.83
2019-02-16T09:10:47.578Z,15.70
2019-02-16T09:13:22.266Z,16.23
2019-02-16T09:16:02.422Z,14.63
2019-02-16T09:18:35.817Z,16.03
2019-02-16T09:21:29.294Z,15.63
2019-02-16T09:24:03.559Z,19.53
2019-02-16T09:26:39.832Z,17.57
2019-02-16T09:31:17.677Z,18.47
2019-02-16T09:33:52.168Z,17.80
2019-02-16T09:36:26.608Z,18.70
2019-02-16T09:39:00.049Z,22.23
2019-02-16T09:41:37.564Z,18.93
2019-02-16T09:44:12.117Z,18.33
2019-02-16T09:47:05.684Z,19.80
2019-02-16T09:49:44.092Z,17.73
2019-02-16T09:54:27.481Z,19.33
2019-02-16T09:57:03.880Z,18.80
2019-02-16T09:59:41.147Z,19.77
2019-02-16T10:02:14.547Z,19.97
2019-02-16T10:04:48.463Z,21.13
2019-02-16T10:07:23.820Z,25.47
2019-02-16T10:10:32.644Z,18.90
2019-02-16T10:13:09.480Z,25.40
2019-02-16T10:16:16.228Z,18.87
2019-02-16T10:18:50.551Z,19.40
2019-02-16T10:21:55.232Z,23.50
2019-02-16T10:24:29.812Z,18.27
2019-02-16T10:27:04.148Z,21.97
2019-02-16T10:29:38.779Z,19.50
2019-02-16T10:34:15.608Z,19.17
2019-02-16T10:36:49.882Z,20.60
2019-02-16T10:39:28.287Z,17.27
2019-02-16T10:42:05.709Z,18.83
2019-02-16T10:46:41.876Z,18.77
2019-02-16T10:49:23.342Z,21.97
2019-02-16T10:51:59.624Z,18.13
2019-02-16T10:54:34.065Z,24.77
2019-02-16T10:57:14.520Z,20.07
2019-02-16T10:59:50.918Z,21.63
2019-02-16T11:02:31.986Z,18.73
2019-02-16T11:05:05.441Z,24.13
2019-02-16T11:07:39.922Z,18.43
2019-02-16T11:10:28.737Z,18.20
2019-02-16T11:13:03.120Z,18.37
2019-02-16T11:15:37.670Z,21.03
2019-02-16T11:18:26.269Z,18.87
2019-02-16T11:23:03.798Z,18.30
2019-02-16T11:25:38.869Z,23.97
2019-02-16T11:28:30.236Z,22.37
2019-02-16T11:31:18.857Z,19.70
2019-02-16T11:33:52.215Z,24.10
2019-02-16T11:36:32.654Z,19.53
2019-02-16T11:39:26.050Z,22.50
2019-02-16T11:42:00.777Z,21.97
2019-02-16T11:45:05.445Z,21.90
2019-02-16T11:47:43.728Z,19.80
2019-02-16T11:50:45.413Z,21.17
2019-02-16T11:53:23.830Z,19.87
2019-02-16T11:56:31.409Z,22.93
2019-02-16T11:59:13.824Z,23.23
2019-02-16T12:01:50.149Z,22.97
2019-02-16T12:04:24.787Z,22.97
2019-02-16T12:07:02.211Z,21.00
2019-02-16T12:09:41.366Z,19.93
2019-02-16T12:12:21.776Z,25.80
2019-02-16T12:14:56.158Z,25.10
2019-02-16T12:17:31.582Z,23.00
2019-02-16T12:20:06.258Z,26.70
2019-02-16T12:22:40.485Z,25.50
2019-02-16T12:25:16.204Z,22.20
2019-02-16T12:28:54.676Z,21.80
2019-02-16T12:31:30.615Z,19.40
2019-02-16T12:34:12.414Z,24.30
2019-02-16T12:36:46.720Z,20.27
2019-02-16T12:39:20.983Z,21.63
2019-02-16T12:42:52.863Z,22.10
2019-02-16T12:45:30.098Z,18.90
2019-02-16T12:48:16.553Z,22.13
2019-02-16T12:50:51.063Z,19.47
2019-02-16T12:53:24.422Z,19.97
2019-02-16T12:56:16.783Z,18.77
2019-02-16T12:58:51.405Z,20.63
2019-02-16T13:03:31.115Z,23.13
2019-02-16T13:06:21.100Z,22.67
2019-02-16T13:09:53.027Z,21.67
2019-02-16T13:12:32.375Z,21.50
2019-02-16T13:15:08.640Z,26.17
2019-02-16T13:17:42.111Z,19.83
2019-02-16T13:21:17.200Z,21.70
2019-02-16T13:23:50.629Z,23.70
2019-02-16T13:26:32.047Z,22.70
2019-02-16T13:29:38.574Z,22.37
2019-02-16T13:32:13.278Z,27.23
2019-02-16T13:34:50.586Z,26.20
2019-02-16T13:37:25.080Z,24.87
2019-02-16T13:40:04.940Z,22.43
2019-02-16T13:42:40.671Z,23.43
2019-02-16T13:47:17.508Z,20.00
2019-02-16T13:49:59.291Z,22.80
2019-02-16T13:52:36.665Z,25.13
2019-02-16T13:55:43.359Z,25.43
2019-02-16T13:58:21.840Z,22.77
2019-02-16T14:01:00.212Z,21.97
2019-02-16T14:04:38.202Z,21.30
2019-02-16T14:09:16.721Z,20.87
2019-02-16T14:11:52.133Z,22.20
2019-02-16T14:14:27.301Z,20.33
2019-02-16T14:17:06.780Z,23.03
2019-02-16T14:19:39.476Z,25.33
2019-02-16T14:22:08.807Z,30.70
2019-02-16T14:24:42.759Z,21.03
2019-02-16T14:27:12.151Z,26.83
2019-02-16T14:29:41.504Z,25.10
2019-02-16T14:32:10.894Z,23.57
2019-02-16T14:34:40.246Z,22.80
2019-02-16T14:37:13.575Z,23.70
2019-02-16T14:39:42.919Z,26.67
2019-02-16T14:42:12.357Z,22.00
2019-02-16T14:44:41.663Z,18.83
2019-02-16T14:47:11.080Z,18.70
2019-02-16T14:49:40.411Z,20.20
2019-02-16T14:52:09.812Z,20.30
2019-02-16T14:54:39.741Z,17.80
2019-02-16T14:57:09.044Z,17.82
2019-02-16T14:59:38.383Z,16.52
2019-02-16T15:02:08.363Z,16.42
2019-02-16T15:04:37.717Z,17.27
2019-02-16T15:07:07.091Z,17.35
2019-02-16T15:09:37.136Z,17.40
2019-02-16T15:12:06.469Z,16.90
2019-02-16T15:14:35.768Z,15.70
2019-02-16T15:17:05.103Z,17.75
2019-02-16T15:19:34.555Z,16.55
2019-02-16T15:22:04.995Z,17.05
2019-02-16T15:24:35.197Z,17.02
2019-02-16T15:27:05.180Z,18.52
2019-02-16T15:29:35.096Z,20.77
2019-02-16T15:32:04.414Z,20.85
2019-02-16T15:34:33.808Z,20.00
2019-02-16T15:37:03.150Z,22.03
2019-02-16T15:39:32.473Z,25.20
2019-02-16T15:42:02.996Z,21.47
2019-02-16T15:44:31.255Z,23.80
2019-02-16T15:47:00.548Z,20.27
2019-02-16T15:49:31.154Z,25.77
2019-02-16T15:52:01.768Z,21.17
2019-02-16T15:54:31.096Z,23.33
2019-02-16T15:57:00.564Z,27.30
2019-02-16T15:59:35.275Z,25.70
2019-02-16T16:01:59.439Z,25.63
2019-02-16T16:04:28.815Z,29.37
2019-02-16T16:06:58.123Z,28.20
2019-02-16T16:09:39.088Z,23.27
2019-02-16T16:12:14.475Z,21.60
2019-02-16T16:14:49.484Z,26.17
2019-02-16T16:17:27.547Z,25.93
2019-02-16T16:21:00.396Z,28.97
2019-02-16T16:24:05.754Z,19.73
2019-02-16T16:26:43.215Z,33.13
2019-02-16T16:29:48.736Z,29.30
2019-02-16T16:32:24.045Z,26.13
2019-02-16T16:35:03.527Z,27.17
2019-02-16T16:37:37.828Z,25.37
2019-02-16T16:40:12.693Z,25.53
2019-02-16T16:42:47.146Z,30.77
2019-02-16T16:45:22.451Z,30.87
2019-02-16T16:48:04.884Z,28.30
2019-02-16T16:50:39.384Z,23.20
2019-02-16T16:53:22.820Z,28.43
2019-02-16T16:55:59.152Z,27.63
2019-02-16T16:58:35.464Z,32.03
2019-02-16T17:01:10.175Z,28.53
2019-02-16T17:03:43.625Z,25.93
2019-02-16T17:06:18.168Z,31.23
2019-02-16T17:08:57.444Z,31.60
2019-02-16T17:12:35.549Z,29.20
2019-02-16T17:15:46.324Z,33.33
2019-02-16T17:18:24.620Z,37.60
2019-02-16T17:20:59.026Z,25.90
2019-02-16T17:23:36.348Z,29.03
2019-02-16T17:26:11.728Z,30.13
2019-02-16T17:29:44.539Z,27.97
2019-02-16T17:32:23.065Z,28.93
2019-02-16T17:34:56.524Z,25.90
2019-02-16T17:37:31.313Z,30.40
2019-02-16T17:40:05.788Z,24.37
2019-02-16T17:42:41.600Z,21.07
2019-02-16T17:45:16.446Z,27.30
2019-02-16T17:47:53.205Z,23.40
2019-02-16T17:50:31.716Z,26.77
2019-02-16T17:53:09.305Z,20.50
2019-02-16T17:55:47.499Z,23.67
2019-02-16T17:59:20.807Z,21.10
2019-02-16T18:02:16.152Z,20.87
2019-02-16T18:04:57.078Z,16.53
2019-02-16T18:07:33.504Z,23.27
2019-02-16T18:10:40.021Z,23.43
2019-02-16T18:13:15.319Z,23.27
2019-02-16T18:15:50.752Z,22.23
2019-02-16T18:18:25.203Z,18.57
2019-02-16T18:21:03.619Z,22.60
2019-02-16T18:23:38.500Z,23.67
2019-02-16T18:26:11.907Z,15.93
2019-02-16T18:28:56.503Z,23.90
2019-02-16T18:31:21.688Z,19.83
2019-02-16T18:34:01.168Z,27.90
2019-02-16T18:36:38.239Z,26.67
2019-02-16T18:39:12.636Z,29.47
2019-02-16T18:42:45.525Z,34.67
2019-02-16T18:45:24.800Z,24.93
2019-02-16T18:48:59.081Z,24.83
2019-02-16T18:51:33.361Z,22.13
2019-02-16T18:54:07.658Z,24.73
2019-02-16T18:56:41.087Z,21.03
2019-02-16T18:59:15.552Z,22.10
2019-02-16T19:01:52.971Z,19.97
2019-02-16T19:04:35.449Z,18.50
2019-02-16T19:07:09.925Z,20.27
2019-02-16T19:09:50.359Z,18.00
2019-02-16T19:12:58.849Z,20.33
2019-02-16T19:15:35.124Z,27.20
2019-02-16T19:18:09.416Z,19.90
2019-02-16T19:20:58.984Z,34.03
2019-02-16T19:23:40.211Z,17.83
2019-02-16T19:26:14.572Z,20.53
2019-02-16T19:28:48.855Z,18.87
2019-02-16T19:31:23.799Z,20.83
2019-02-16T19:36:00.163Z,18.43
2019-02-16T19:38:33.597Z,20.23
2019-02-16T19:41:07.836Z,19.47
2019-02-16T19:43:45.248Z,16.63
2019-02-16T19:46:33.564Z,17.97
2019-02-16T19:49:08.903Z,15.73
2019-02-16T19:51:44.086Z,20.03
2019-02-16T19:56:25.450Z,22.27
2019-02-16T20:01:05.073Z,15.97
2019-02-16T20:05:42.019Z,16.33
2019-02-16T20:08:15.539Z,22.83
2019-02-16T20:10:52.779Z,18.23
2019-02-16T20:13:26.227Z,21.50
2019-02-16T20:16:00.647Z,21.50
2019-02-16T20:18:37.946Z,21.13
2019-02-16T20:21:19.467Z,21.77
2019-02-16T20:23:53.846Z,23.23
2019-02-16T20:26:29.168Z,22.00
2019-02-16T20:29:04.421Z,26.47
2019-02-16T20:31:39.808Z,21.73
2019-02-16T20:34:21.237Z,28.23
2019-02-16T20:36:57.617Z,23.50
2019-02-16T20:39:36.115Z,24.13
2019-02-16T20:42:16.627Z,21.50
2019-02-16T20:44:53.043Z,16.90
2019-02-16T20:47:30.415Z,20.83
2019-02-16T20:50:21.032Z,23.73
2019-02-16T20:52:54.474Z,25.93
2019-02-16T20:55:27.931Z,23.30
2019-02-16T20:58:21.293Z,20.30
2019-02-16T21:00:56.638Z,19.03
2019-02-16T21:03:30.092Z,21.90
2019-02-16T21:08:10.374Z,19.23
2019-02-16T21:11:41.599Z,20.33
2019-02-16T21:14:15.591Z,26.77
2019-02-16T21:18:51.692Z,22.30
2019-02-16T21:21:31.077Z,18.53
2019-02-16T21:24:06.937Z,17.80
2019-02-16T21:26:43.177Z,22.27
2019-02-16T21:29:16.585Z,18.70
2019-02-16T21:31:51.176Z,17.40
2019-02-16T21:34:29.784Z,17.90
2019-02-16T21:37:03.053Z,20.67
2019-02-16T21:39:36.494Z,17.00
2019-02-16T21:44:13.768Z,14.50
2019-02-16T21:46:56.885Z,15.97
2019-02-16T21:50:33.687Z,19.37
2019-02-16T21:53:21.105Z,14.57
2019-02-16T21:57:53.769Z,18.00
2019-02-16T22:00:28.282Z,17.53
2019-02-16T22:03:02.321Z,17.27
2019-02-16T22:07:39.629Z,17.20
2019-02-16T22:10:20.260Z,19.13
2019-02-16T22:13:09.883Z,15.73
2019-02-16T22:15:39.373Z,18.07
2019-02-16T22:18:08.692Z,20.00
2019-02-16T22:20:39.572Z,17.17
2019-02-16T22:23:08.942Z,15.57
2019-02-16T22:25:38.276Z,14.33
2019-02-16T22:28:17.905Z,18.77
2019-02-16T22:30:37.003Z,19.90
2019-02-16T22:33:06.396Z,18.83
2019-02-16T22:35:35.728Z,18.00
2019-02-16T22:38:05.183Z,14.07
2019-02-16T22:40:34.539Z,18.47
2019-02-16T22:43:03.861Z,16.73
2019-02-16T22:45:33.252Z,14.43
2019-02-16T22:48:03.358Z,13.03
2019-02-16T22:50:32.764Z,17.27
2019-02-16T22:53:02.092Z,15.60
2019-02-16T22:55:31.496Z,17.30
2019-02-16T22:58:00.795Z,14.10
2019-02-16T23:00:40.824Z,16.90
2019-02-16T23:03:10.977Z,16.93
2019-02-16T23:05:40.394Z,16.03
2019-02-16T23:08:09.795Z,17.27
2019-02-16T23:10:39.099Z,16.47
2019-02-16T23:13:08.715Z,16.87
2019-02-16T23:15:37.959Z,13.23
2019-02-16T23:18:07.329Z,20.37
2019-02-16T23:20:36.676Z,16.40
2019-02-16T23:23:06.044Z,14.47
2019-02-16T23:25:35.433Z,16.20
2019-02-16T23:28:05.681Z,19.30
2019-02-16T23:30:35.083Z,18.23
2019-02-16T23:33:04.480Z,17.27
2019-02-16T23:35:33.790Z,17.23
2019-02-16T23:38:03.199Z,17.30
2019-02-16T23:40:32.516Z,17.33
2019-02-16T23:43:01.900Z,14.93
2019-02-16T23:45:31.281Z,16.53
2019-02-16T23:48:01.320Z,16.07
2019-02-16T23:50:30.664Z,20.90
2019-02-16T23:52:59.989Z,17.07
2019-02-16T23:55:29.336Z,20.30
2019-02-16T23:57:58.699Z,18.60
